Time;durP1;ratioP1;P1;durP2;ratioP2;P2;SDS_P1;SDS_P2;PMS_P1;PMS_P2;Temp;Humidity;BMP_temperature;BMP_pressure;BME280_temperature;BME280_humidity;BME280_pressure;Samples;Min_cycle;Max_cycle;Signal;HPM_P1;HPM_P2
2021/04/30 00:01:42;;;;;;;26.40;23.63;;;10.00;75.90;;;;;;5011796;28;20049;-74
2021/04/30 00:04:07;;;;;;;27.52;24.10;;;10.00;76.00;;;;;;4979030;28;20056;-74
2021/04/30 00:06:33;;;;;;;26.50;23.70;;;10.00;76.10;;;;;;5015266;28;20060;-74
2021/04/30 00:08:59;;;;;;;29.35;25.45;;;10.00;76.20;;;;;;5014172;28;20100;-75
2021/04/30 00:11:30;;;;;;;27.88;25.00;;;10.00;76.40;;;;;;5014449;28;20042;-74
2021/04/30 00:13:56;;;;;;;27.88;24.92;;;10.00;76.30;;;;;;5014610;28;20049;-80
2021/04/30 00:16:22;;;;;;;27.52;24.60;;;10.00;76.10;;;;;;4998250;28;20054;-74
2021/04/30 00:18:48;;;;;;;29.00;25.77;;;10.00;76.20;;;;;;5015816;28;20045;-74
2021/04/30 00:21:14;;;;;;;30.42;25.92;;;10.00;76.10;;;;;;5014327;28;20057;-75
2021/04/30 00:23:40;;;;;;;29.15;25.75;;;9.90;76.20;;;;;;5026863;28;20064;-74
2021/04/30 00:26:06;;;;;;;30.80;27.10;;;9.90;76.30;;;;;;4986843;28;20133;-74
2021/04/30 00:28:32;;;;;;;28.48;24.70;;;9.90;76.50;;;;;;5013726;28;20042;-74
2021/04/30 00:30:58;;;;;;;31.92;27.65;;;9.90;76.60;;;;;;5012982;28;20053;-79
2021/04/30 00:33:24;;;;;;;30.15;25.35;;;9.90;76.80;;;;;;4997483;28;20045;-74
2021/04/30 00:35:50;;;;;;;30.17;24.92;;;9.90;76.80;;;;;;4998461;28;20050;-75
2021/04/30 00:38:16;;;;;;;32.10;26.63;;;9.90;76.80;;;;;;4998509;28;20054;-74
2021/04/30 00:40:42;;;;;;;29.40;26.33;;;9.90;76.80;;;;;;4997814;28;20092;-75
2021/04/30 00:43:09;;;;;;;29.98;26.88;;;9.90;76.80;;;;;;4995036;28;20057;-75
2021/04/30 00:45:35;;;;;;;30.98;25.92;;;9.90;76.90;;;;;;4996157;28;20054;-74
2021/04/30 00:48:00;;;;;;;31.13;27.83;;;9.90;76.90;;;;;;5011617;28;20164;-79
2021/04/30 00:50:27;;;;;;;32.53;28.63;;;9.90;76.90;;;;;;4995426;28;20056;-74
2021/04/30 00:52:53;;;;;;;31.25;28.05;;;9.90;77.00;;;;;;5011893;28;20042;-73
2021/04/30 00:55:19;;;;;;;33.67;28.80;;;9.90;77.10;;;;;;4979737;28;20649;-75
2021/04/30 00:58:03;;;;;;;32.28;27.85;;;9.90;76.90;;;;;;5011575;28;20048;-75
2021/04/30 01:00:30;;;;;;;34.40;28.10;;;9.90;76.80;;;;;;5032032;28;20060;-74
2021/04/30 01:02:59;;;;;;;30.52;27.33;;;9.90;76.90;;;;;;4998818;28;20432;-74
2021/04/30 01:05:25;;;;;;;34.30;27.27;;;9.90;76.90;;;;;;4996651;28;20050;-75
2021/04/30 01:07:51;;;;;;;32.53;28.17;;;9.90;76.80;;;;;;5011635;28;20450;-75
2021/04/30 01:10:21;;;;;;;34.63;27.50;;;9.90;76.70;;;;;;5011161;28;20073;-75
2021/04/30 01:12:47;;;;;;;30.10;26.88;;;9.90;76.60;;;;;;5012858;28;20079;-74
2021/04/30 01:15:14;;;;;;;29.77;26.45;;;9.90;76.50;;;;;;5010936;28;20316;-75
2021/04/30 01:17:40;;;;;;;31.75;28.15;;;9.90;76.50;;;;;;4978496;28;20061;-74
2021/04/30 01:20:07;;;;;;;30.55;26.33;;;9.90;76.60;;;;;;5012978;28;20045;-81
2021/04/30 01:22:40;;;;;;;31.52;26.70;;;9.90;76.60;;;;;;4983489;28;20061;-76
2021/04/30 01:25:11;;;;;;;31.35;27.45;;;9.90;76.50;;;;;;5033549;28;20093;-79
2021/04/30 01:27:37;;;;;;;31.48;28.05;;;9.90;76.80;;;;;;5001716;28;20048;-75
2021/04/30 01:30:08;;;;;;;30.33;26.98;;;9.90;76.90;;;;;;5034635;28;20460;-73
2021/04/30 01:32:34;;;;;;;30.08;26.88;;;9.90;76.80;;;;;;5034132;28;20041;-75
2021/04/30 01:35:00;;;;;;;29.58;26.48;;;9.90;76.60;;;;;;5000953;28;20442;-75
2021/04/30 01:37:25;;;;;;;30.50;27.25;;;9.90;76.70;;;;;;5016681;28;20685;-75
2021/04/30 01:39:52;;;;;;;29.25;26.10;;;9.80;76.70;;;;;;5033916;28;20037;-74
2021/04/30 01:42:17;;;;;;;31.67;25.83;;;9.90;76.70;;;;;;5016802;28;20093;-75
2021/04/30 01:44:43;;;;;;;29.17;25.90;;;9.80;76.50;;;;;;5017740;28;20053;-74
2021/04/30 01:47:09;;;;;;;28.73;25.15;;;9.80;76.80;;;;;;5017315;28;20056;-79
2021/04/30 01:49:35;;;;;;;27.98;25.00;;;9.80;76.80;;;;;;5001052;28;20053;-75
2021/04/30 01:52:00;;;;;;;29.48;26.30;;;9.80;76.70;;;;;;5016539;28;20176;-74
2021/04/30 01:54:29;;;;;;;29.58;26.58;;;9.80;76.80;;;;;;5033807;28;20052;-74
2021/04/30 01:56:55;;;;;;;29.45;26.10;;;9.80;76.90;;;;;;5000512;28;20152;-75
2021/04/30 01:59:22;;;;;;;29.63;25.83;;;9.80;76.80;;;;;;5014263;28;20041;-75
2021/04/30 02:01:48;;;;;;;27.83;24.88;;;9.80;76.80;;;;;;5014131;28;20122;-75
2021/04/30 02:04:14;;;;;;;28.42;25.60;;;9.80;76.80;;;;;;5031066;28;20126;-76
2021/04/30 02:06:40;;;;;;;32.70;26.02;;;9.80;76.90;;;;;;5014171;28;20432;-74
2021/04/30 02:09:07;;;;;;;29.92;26.48;;;9.80;76.90;;;;;;5014144;28;20037;-74
2021/04/30 02:11:34;;;;;;;29.00;25.33;;;9.80;77.10;;;;;;5013386;28;20052;-75
2021/04/30 02:14:00;;;;;;;28.33;25.40;;;9.80;77.20;;;;;;5013782;28;20059;-75
2021/04/30 02:16:25;;;;;;;29.95;25.85;;;9.80;77.20;;;;;;4996622;28;20461;-75
2021/04/30 02:18:51;;;;;;;28.77;25.75;;;9.80;77.30;;;;;;4997635;28;20129;-75
2021/04/30 02:21:17;;;;;;;29.88;26.10;;;9.70;77.40;;;;;;5012918;28;20343;-75
2021/04/30 02:23:43;;;;;;;29.38;25.52;;;9.80;77.50;;;;;;5013602;28;20053;-75
2021/04/30 02:26:09;;;;;;;29.33;25.60;;;9.80;77.50;;;;;;5013566;28;20057;-75
2021/04/30 02:28:34;;;;;;;28.75;25.75;;;9.80;77.60;;;;;;4996626;28;20049;-75
2021/04/30 02:31:00;;;;;;;28.33;25.52;;;9.80;77.60;;;;;;4997495;28;20474;-75
2021/04/30 02:33:26;;;;;;;29.00;25.33;;;9.70;77.50;;;;;;5029396;28;20096;-75
2021/04/30 02:35:52;;;;;;;27.85;24.88;;;9.70;77.50;;;;;;5013544;28;20052;-75
2021/04/30 02:38:18;;;;;;;27.63;24.35;;;9.80;77.50;;;;;;5030522;28;20152;-76
2021/04/30 02:40:46;;;;;;;27.73;24.58;;;9.80;77.60;;;;;;4997556;28;20048;-75
2021/04/30 02:43:14;;;;;;;29.10;24.35;;;9.80;77.50;;;;;;5013383;28;20141;-75
2021/04/30 02:45:40;;;;;;;26.20;23.55;;;9.70;77.50;;;;;;5013239;28;20045;-76
2021/04/30 02:48:11;;;;;;;27.58;24.65;;;9.70;77.60;;;;;;4997006;28;20072;-75
2021/04/30 02:50:37;;;;;;;27.60;24.70;;;9.60;77.60;;;;;;5003378;28;20038;-74
2021/04/30 02:53:03;;;;;;;27.40;24.50;;;9.60;77.70;;;;;;5003398;28;20057;-75
2021/04/30 02:55:29;;;;;;;29.02;26.02;;;9.60;77.70;;;;;;5015272;28;20102;-75
2021/04/30 02:57:56;;;;;;;26.77;23.60;;;9.60;77.80;;;;;;5013687;28;20042;-74
2021/04/30 03:00:22;;;;;;;27.08;23.73;;;9.50;77.70;;;;;;5010939;28;20049;-75
2021/04/30 03:02:48;;;;;;;29.85;25.05;;;9.50;77.70;;;;;;4979839;28;20038;-75
2021/04/30 03:05:14;;;;;;;28.77;25.33;;;9.50;77.80;;;;;;5014475;28;20041;-76
2021/04/30 03:07:40;;;;;;;29.92;26.50;;;9.50;77.80;;;;;;5015037;28;20041;-76
2021/04/30 03:10:06;;;;;;;30.25;24.83;;;9.50;77.90;;;;;;5015552;28;20155;-75
2021/04/30 03:12:35;;;;;;;28.55;25.50;;;9.50;77.90;;;;;;5015102;28;20050;-76
2021/04/30 03:15:01;;;;;;;30.10;25.23;;;9.50;77.80;;;;;;5015269;28;20166;-75
2021/04/30 03:17:26;;;;;;;28.35;25.13;;;9.50;78.00;;;;;;4981460;28;20171;-76
2021/04/30 03:19:52;;;;;;;27.95;24.70;;;9.50;77.80;;;;;;5014062;28;20041;-76
2021/04/30 03:22:18;;;;;;;30.67;26.17;;;9.60;77.80;;;;;;5030447;28;20128;-75
2021/04/30 03:24:45;;;;;;;29.23;26.05;;;9.50;77.90;;;;;;4997304;28;20137;-75
2021/04/30 03:27:11;;;;;;;27.10;24.30;;;9.60;77.70;;;;;;5030920;28;20045;-75
2021/04/30 03:29:37;;;;;;;29.42;26.33;;;9.50;77.70;;;;;;4997219;28;20435;-77
2021/04/30 03:32:03;;;;;;;29.20;25.70;;;9.50;77.90;;;;;;5014694;28;20049;-75
2021/04/30 03:34:28;;;;;;;26.98;24.17;;;9.50;78.00;;;;;;5012624;28;20398;-76
2021/04/30 03:36:54;;;;;;;27.60;24.50;;;9.50;77.80;;;;;;5012826;28;20046;-74
2021/04/30 03:39:20;;;;;;;28.13;24.25;;;9.50;77.80;;;;;;5013754;28;20094;-75
2021/04/30 03:41:46;;;;;;;27.23;24.50;;;9.50;77.80;;;;;;5016262;28;20045;-75
2021/04/30 03:44:11;;;;;;;27.90;24.00;;;9.60;77.80;;;;;;5033384;28;20037;-75
2021/04/30 03:46:37;;;;;;;28.48;25.42;;;9.60;77.70;;;;;;5015937;28;20048;-75
2021/04/30 03:49:05;;;;;;;28.15;25.15;;;9.60;77.80;;;;;;5016550;28;20041;-76
2021/04/30 03:51:30;;;;;;;26.92;24.02;;;9.60;77.80;;;;;;5015986;28;20072;-74
2021/04/30 03:53:56;;;;;;;28.25;25.35;;;9.60;77.80;;;;;;5000099;28;20103;-74
2021/04/30 03:56:22;;;;;;;27.10;24.40;;;9.60;78.40;;;;;;5032670;28;20176;-75
2021/04/30 03:58:50;;;;;;;28.35;25.48;;;9.60;77.70;;;;;;5032165;28;20358;-79
2021/04/30 04:01:15;;;;;;;29.77;26.52;;;9.50;77.60;;;;;;5000079;28;20060;-75
2021/04/30 04:03:44;;;;;;;27.25;24.45;;;9.60;77.70;;;;;;5015421;28;20038;-75
2021/04/30 04:06:09;;;;;;;27.52;24.63;;;9.60;77.70;;;;;;5032970;28;20045;-75
2021/04/30 04:08:35;;;;;;;27.35;24.42;;;9.60;77.70;;;;;;5015294;28;20455;-74
2021/04/30 04:11:01;;;;;;;27.70;24.85;;;9.60;77.70;;;;;;4999759;28;20055;-74
2021/04/30 04:13:26;;;;;;;26.65;23.92;;;9.60;77.80;;;;;;5032602;28;20471;-80
2021/04/30 04:15:53;;;;;;;27.38;24.52;;;9.60;77.80;;;;;;4999808;28;20435;-75
2021/04/30 04:18:19;;;;;;;28.55;24.70;;;9.60;77.90;;;;;;4999612;28;20045;-74
2021/04/30 04:20:45;;;;;;;28.35;25.20;;;9.60;78.00;;;;;;5032123;28;20042;-75
2021/04/30 04:23:11;;;;;;;27.52;24.48;;;9.60;77.70;;;;;;5032385;28;20060;-74
2021/04/30 04:25:37;;;;;;;26.80;24.00;;;9.60;77.80;;;;;;5015070;28;20033;-75
2021/04/30 04:28:04;;;;;;;26.63;23.92;;;9.60;77.90;;;;;;5015754;28;20045;-75
2021/04/30 04:30:30;;;;;;;27.70;24.77;;;9.60;77.70;;;;;;5031556;28;20080;-79
2021/04/30 04:32:58;;;;;;;27.63;24.77;;;9.60;77.80;;;;;;5014931;28;20076;-76
2021/04/30 04:35:24;;;;;;;28.05;25.15;;;9.60;77.80;;;;;;4999304;28;20107;-76
2021/04/30 04:37:50;;;;;;;25.50;22.90;;;9.60;77.80;;;;;;4998667;28;20665;-75
2021/04/30 04:40:16;;;;;;;26.42;23.75;;;9.60;77.80;;;;;;4999208;28;20049;-75
2021/04/30 04:42:42;;;;;;;27.83;24.90;;;9.60;77.90;;;;;;4999039;28;20041;-74
2021/04/30 04:45:09;;;;;;;28.85;25.90;;;9.60;77.80;;;;;;5015856;28;20052;-78
2021/04/30 04:47:34;;;;;;;28.67;25.73;;;9.60;78.00;;;;;;5014841;28;20041;-77
2021/04/30 04:50:00;;;;;;;28.60;25.58;;;9.60;78.00;;;;;;5032379;28;20194;-74
2021/04/30 04:52:26;;;;;;;26.52;23.98;;;9.60;77.90;;;;;;5015070;28;20116;-74
2021/04/30 04:54:52;;;;;;;28.02;25.15;;;9.60;78.00;;;;;;5031284;28;20088;-75
2021/04/30 04:57:20;;;;;;;29.67;25.27;;;9.60;78.10;;;;;;5031657;28;20103;-75
2021/04/30 04:59:46;;;;;;;27.13;24.45;;;9.60;78.00;;;;;;5014839;28;20128;-75
2021/04/30 05:02:11;;;;;;;29.45;25.30;;;9.60;78.00;;;;;;5031692;28;20056;-75
2021/04/30 05:04:42;;;;;;;27.10;24.20;;;9.60;77.90;;;;;;4999014;28;20070;-74
2021/04/30 05:07:08;;;;;;;26.73;23.85;;;9.60;77.90;;;;;;5014307;28;20128;-74
2021/04/30 05:09:34;;;;;;;27.90;24.95;;;9.60;77.90;;;;;;4981686;28;20513;-79
2021/04/30 05:12:00;;;;;;;25.85;23.15;;;9.60;77.90;;;;;;5013584;28;20049;-74
2021/04/30 05:14:25;;;;;;;26.90;24.05;;;9.60;77.90;;;;;;5014206;28;20060;-76
2021/04/30 05:16:51;;;;;;;29.08;25.38;;;9.60;77.90;;;;;;4994310;28;20131;-75
2021/04/30 05:19:17;;;;;;;27.52;24.27;;;9.60;77.80;;;;;;5014498;28;20033;-76
2021/04/30 05:21:46;;;;;;;26.08;23.42;;;9.60;77.90;;;;;;4979190;28;20407;-78
2021/04/30 05:24:15;;;;;;;28.08;25.23;;;9.60;78.00;;;;;;5008548;28;20053;-74
2021/04/30 05:26:41;;;;;;;27.45;24.58;;;9.70;77.90;;;;;;5013939;28;20042;-76
2021/04/30 05:29:07;;;;;;;27.73;24.92;;;9.60;77.90;;;;;;4997631;28;20060;-76
2021/04/30 05:31:32;;;;;;;27.30;24.02;;;9.60;77.90;;;;;;4997752;28;20541;-76
2021/04/30 05:33:58;;;;;;;27.63;24.67;;;9.60;77.90;;;;;;5013147;28;20041;-76
2021/04/30 05:36:24;;;;;;;25.73;23.13;;;9.70;77.90;;;;;;5013947;28;20120;-77
2021/04/30 05:38:50;;;;;;;27.30;24.40;;;9.70;77.90;;;;;;5013446;28;20401;-76
2021/04/30 05:41:16;;;;;;;27.17;24.27;;;9.70;77.90;;;;;;5030864;28;20132;-75
2021/04/30 05:43:42;;;;;;;26.92;24.13;;;9.70;77.90;;;;;;4997921;28;20128;-79
2021/04/30 05:46:07;;;;;;;26.35;23.67;;;9.70;77.90;;;;;;5014644;28;20052;-76
2021/04/30 05:48:33;;;;;;;26.77;23.50;;;9.70;77.80;;;;;;5014602;28;20045;-75
2021/04/30 05:50:59;;;;;;;28.17;25.27;;;9.80;77.70;;;;;;5013567;28;20624;-74
2021/04/30 05:53:25;;;;;;;28.30;25.30;;;9.80;77.70;;;;;;5014293;28;20054;-74
2021/04/30 05:55:50;;;;;;;29.15;26.00;;;9.80;77.70;;;;;;5013643;28;20139;-75
2021/04/30 05:58:16;;;;;;;26.20;23.52;;;9.80;77.60;;;;;;5030731;28;20041;-75
2021/04/30 06:00:42;;;;;;;27.48;24.40;;;9.80;77.50;;;;;;5030298;28;20044;-80
2021/04/30 06:03:07;;;;;;;26.83;24.08;;;9.80;77.50;;;;;;4989440;28;20483;-75
2021/04/30 06:05:33;;;;;;;25.83;23.23;;;9.80;77.40;;;;;;5028569;28;20095;-75
2021/04/30 06:07:59;;;;;;;27.25;23.13;;;9.90;78.10;;;;;;4996336;28;20448;-75
2021/04/30 06:10:28;;;;;;;26.40;23.17;;;9.90;77.20;;;;;;4979744;28;20048;-75
2021/04/30 06:12:57;;;;;;;25.35;22.42;;;9.90;77.10;;;;;;4996533;28;20431;-74
2021/04/30 06:15:22;;;;;;;25.52;22.80;;;9.90;76.90;;;;;;4996178;28;20067;-76
2021/04/30 06:17:49;;;;;;;25.23;22.58;;;9.90;76.90;;;;;;5019031;28;20308;-76
2021/04/30 06:20:14;;;;;;;26.23;22.48;;;9.90;76.80;;;;;;5010631;28;20045;-77
2021/04/30 06:22:43;;;;;;;25.98;22.75;;;10.00;76.90;;;;;;5006113;28;20080;-81
2021/04/30 06:25:10;;;;;;;18.73;16.17;;;10.00;76.90;;;;;;5023097;28;20057;-75
2021/04/30 06:27:37;;;;;;;23.33;12.18;;;10.00;76.90;;;;;;4997349;28;20041;-74
2021/04/30 06:30:04;;;;;;;20.65;18.45;;;10.40;77.50;;;;;;4996483;28;20049;-73
2021/04/30 06:32:29;;;;;;;23.80;20.40;;;10.60;76.50;;;;;;5006650;28;20072;-75
2021/04/30 06:34:55;;;;;;;25.00;22.48;;;10.70;75.70;;;;;;5015926;28;20045;-74
2021/04/30 06:37:25;;;;;;;24.38;21.83;;;10.70;75.70;;;;;;5024546;28;20041;-77
2021/04/30 06:39:52;;;;;;;26.08;21.48;;;10.60;75.80;;;;;;5013923;28;20049;-74
2021/04/30 06:42:17;;;;;;;28.05;21.85;;;10.60;76.00;;;;;;4997566;28;20069;-73
2021/04/30 06:44:43;;;;;;;26.90;23.15;;;10.50;76.10;;;;;;4980893;28;20471;-76
2021/04/30 06:47:09;;;;;;;26.58;22.40;;;10.50;76.30;;;;;;4992259;28;20046;-77
2021/04/30 06:49:34;;;;;;;27.20;22.85;;;10.50;76.50;;;;;;5021624;28;20038;-78
2021/04/30 06:52:00;;;;;;;24.77;22.08;;;10.50;76.40;;;;;;5020669;28;20125;-82
2021/04/30 06:54:26;;;;;;;27.83;22.83;;;10.50;77.50;;;;;;5008372;28;20409;-76
2021/04/30 06:56:54;;;;;;;25.48;22.13;;;10.50;76.80;;;;;;5020544;28;20350;-77
2021/04/30 06:59:20;;;;;;;19.95;15.27;;;10.50;76.70;;;;;;5007786;28;20054;-78
2021/04/30 07:01:46;;;;;;;22.90;20.05;;;10.70;77.60;;;;;;5017440;28;20049;-74
2021/04/30 07:04:12;;;;;;;28.08;22.38;;;10.80;77.00;;;;;;5003979;28;20045;-77
2021/04/30 07:06:37;;;;;;;27.42;22.00;;;10.80;76.40;;;;;;5019823;28;20041;-77
2021/04/30 07:09:06;;;;;;;30.13;24.17;;;10.80;76.30;;;;;;5018188;28;20046;-79
2021/04/30 07:11:32;;;;;;;26.13;22.73;;;10.90;76.40;;;;;;4993737;28;20073;-77
2021/04/30 07:13:57;;;;;;;25.15;20.10;;;10.90;76.50;;;;;;4992955;28;20046;-78
2021/04/30 07:16:23;;;;;;;31.33;21.77;;;10.90;76.50;;;;;;4997878;28;20057;-79
2021/04/30 07:18:49;;;;;;;26.85;22.50;;;10.90;76.60;;;;;;4981545;28;20471;-79
2021/04/30 07:21:15;;;;;;;23.88;21.38;;;11.00;76.50;;;;;;5013401;28;20045;-79
2021/04/30 07:23:40;;;;;;;27.50;22.02;;;11.00;76.50;;;;;;5013760;28;20060;-80
2021/04/30 07:26:07;;;;;;;26.70;21.65;;;11.00;76.40;;;;;;4997936;28;20172;-74
2021/04/30 07:28:33;;;;;;;24.90;22.33;;;11.00;76.60;;;;;;5003037;28;20113;-74
2021/04/30 07:30:58;;;;;;;27.92;22.42;;;11.00;76.60;;;;;;5007860;28;20141;-74
2021/04/30 07:33:24;;;;;;;29.33;22.40;;;11.00;76.30;;;;;;5008573;28;20471;-74
2021/04/30 07:35:50;;;;;;;29.58;22.88;;;11.10;76.20;;;;;;5005614;28;20089;-76
2021/04/30 07:38:16;;;;;;;26.67;22.17;;;11.10;76.20;;;;;;4995091;28;20052;-77
2021/04/30 07:40:43;;;;;;;28.35;22.58;;;11.20;76.20;;;;;;5012333;28;20344;-78
2021/04/30 07:43:10;;;;;;;22.90;20.45;;;11.20;76.20;;;;;;5010328;28;20050;-80
2021/04/30 07:45:37;;;;;;;28.80;23.02;;;11.20;76.20;;;;;;4995116;28;20509;-80
2021/04/30 07:48:03;;;;;;;25.80;19.35;;;11.30;76.20;;;;;;5010802;28;20510;-77
2021/04/30 07:50:29;;;;;;;25.52;20.75;;;11.40;76.70;;;;;;5012900;28;20053;-78
2021/04/30 07:52:54;;;;;;;24.10;21.23;;;11.40;76.60;;;;;;4980933;28;20042;-74
2021/04/30 07:55:20;;;;;;;31.33;21.05;;;11.50;76.10;;;;;;5023513;28;20049;-75
2021/04/30 07:57:46;;;;;;;24.58;20.48;;;11.60;76.00;;;;;;5023248;28;20053;-75
2021/04/30 08:00:12;;;;;;;25.55;21.55;;;11.60;75.80;;;;;;5007737;28;20080;-74
2021/04/30 08:02:40;;;;;;;26.98;21.83;;;11.70;75.70;;;;;;5028281;28;20046;-75
2021/04/30 08:05:07;;;;;;;25.13;21.30;;;11.70;75.40;;;;;;5023573;28;20079;-75
2021/04/30 08:07:33;;;;;;;28.23;22.23;;;11.80;75.30;;;;;;5024110;28;20096;-74
2021/04/30 08:09:59;;;;;;;27.52;22.98;;;11.80;75.20;;;;;;5009135;28;20045;-85
2021/04/30 08:12:24;;;;;;;25.33;21.50;;;11.80;75.00;;;;;;5026527;28;20046;-76
2021/04/30 08:14:50;;;;;;;25.52;21.77;;;11.90;75.00;;;;;;5008535;28;20053;-75
2021/04/30 08:17:16;;;;;;;24.25;21.10;;;11.90;74.90;;;;;;5023871;28;20037;-75
2021/04/30 08:19:42;;;;;;;24.90;21.38;;;11.90;74.70;;;;;;5030003;28;20042;-75
2021/04/30 08:22:07;;;;;;;29.13;21.08;;;11.90;74.50;;;;;;5020199;28;20038;-75
2021/04/30 08:24:34;;;;;;;26.73;20.50;;;11.90;74.30;;;;;;4991101;28;625750;-77
2021/04/30 08:27:00;;;;;;;23.90;20.05;;;12.00;74.30;;;;;;5024054;28;20186;-82
2021/04/30 08:29:26;;;;;;;23.25;20.40;;;12.00;74.20;;;;;;5021630;28;20056;-75
2021/04/30 08:31:52;;;;;;;26.05;20.90;;;12.10;74.00;;;;;;5017384;28;20049;-75
2021/04/30 08:34:18;;;;;;;22.35;19.92;;;12.10;73.70;;;;;;5003354;28;20050;-78
2021/04/30 08:36:45;;;;;;;25.52;20.05;;;12.10;73.60;;;;;;4990274;28;20060;-78
2021/04/30 08:39:12;;;;;;;24.30;21.92;;;12.10;73.40;;;;;;5023363;28;20041;-77
2021/04/30 08:41:38;;;;;;;21.95;19.73;;;12.20;73.30;;;;;;5014984;28;20045;-76
2021/04/30 08:44:05;;;;;;;27.77;21.33;;;12.20;73.20;;;;;;4998683;28;20064;-77
2021/04/30 08:46:31;;;;;;;21.40;19.17;;;12.20;73.10;;;;;;4978935;28;20041;-76
2021/04/30 08:49:04;;;;;;;24.10;19.65;;;12.20;72.90;;;;;;5019761;28;20044;-76
2021/04/30 08:51:33;;;;;;;22.27;19.70;;;12.20;72.60;;;;;;5003901;28;20100;-78
2021/04/30 08:53:59;;;;;;;23.00;19.58;;;12.30;72.60;;;;;;5019772;28;20053;-81
2021/04/30 08:56:25;;;;;;;21.52;19.20;;;12.30;72.30;;;;;;5009282;28;20033;-79
2021/04/30 08:58:51;;;;;;;23.13;20.67;;;12.30;72.20;;;;;;5024216;28;20390;-77
2021/04/30 09:01:16;;;;;;;24.83;20.70;;;12.30;72.30;;;;;;5036548;28;20069;-77
2021/04/30 09:03:42;;;;;;;20.77;16.27;;;12.40;72.40;;;;;;4994942;28;20414;-78
2021/04/30 09:06:08;;;;;;;22.77;19.50;;;12.50;73.20;;;;;;5024482;28;20076;-84
2021/04/30 09:08:47;;;;;;;24.00;21.02;;;12.60;72.60;;;;;;5012724;28;20037;-73
2021/04/30 09:11:36;;;;;;;24.33;21.08;;;12.70;73.10;;;;;;5031877;28;20628;-73
2021/04/30 09:14:21;;;;;;;23.52;21.02;;;12.70;72.70;;;;;;5031607;28;20045;-73
2021/04/30 09:17:03;;;;;;;24.45;19.83;;;12.80;72.30;;;;;;5014404;28;20045;-72
2021/04/30 09:19:39;;;;;;;23.17;20.27;;;12.80;72.10;;;;;;5033242;28;20049;-72
2021/04/30 09:22:06;;;;;;;22.60;19.15;;;12.80;72.10;;;;;;5034364;28;20185;-79
2021/04/30 09:24:32;;;;;;;25.05;21.38;;;12.90;72.80;;;;;;5009509;28;20493;-76
2021/04/30 09:26:58;;;;;;;24.85;20.33;;;13.00;72.70;;;;;;5020123;28;20065;-76
2021/04/30 09:29:27;;;;;;;23.80;20.45;;;13.10;72.00;;;;;;4991432;28;20041;-77
2021/04/30 09:31:53;;;;;;;24.42;19.52;;;13.20;71.70;;;;;;4994204;28;20045;-79
2021/04/30 09:34:35;;;;;;;25.10;20.00;;;13.20;71.60;;;;;;4998851;28;20553;-76
2021/04/30 09:37:17;;;;;;;23.50;20.77;;;13.30;71.30;;;;;;5010426;28;20402;-77
2021/04/30 09:39:58;;;;;;;22.48;19.67;;;13.40;70.90;;;;;;5022824;28;20061;-74
2021/04/30 09:42:25;;;;;;;21.83;18.30;;;13.50;70.70;;;;;;5004007;28;20075;-79
2021/04/30 09:44:52;;;;;;;21.08;18.83;;;13.50;70.40;;;;;;4998102;28;20431;-75
2021/04/30 09:47:29;;;;;;;22.95;20.50;;;13.60;70.10;;;;;;4964980;28;20482;-76
2021/04/30 09:49:56;;;;;;;33.05;23.17;;;13.70;69.90;;;;;;4997113;28;20050;-84
2021/04/30 09:52:22;;;;;;;30.00;20.95;;;14.10;69.70;;;;;;5012910;28;20096;-79
2021/04/30 09:54:48;;;;;;;22.75;19.25;;;14.30;68.90;;;;;;4997757;28;20118;-78
2021/04/30 09:57:16;;;;;;;28.42;18.75;;;14.30;68.20;;;;;;4998429;28;20046;-85
2021/04/30 09:59:44;;;;;;;21.70;18.30;;;14.30;67.80;;;;;;4997442;28;20061;-76
2021/04/30 10:02:16;;;;;;;23.85;18.50;;;14.40;67.50;;;;;;4997243;28;20042;-78
2021/04/30 10:04:43;;;;;;;21.23;19.08;;;14.40;67.10;;;;;;4980748;28;20547;-75
2021/04/30 10:07:10;;;;;;;20.52;17.48;;;14.40;66.90;;;;;;4997423;28;20487;-78
2021/04/30 10:09:39;;;;;;;22.38;19.23;;;14.40;66.80;;;;;;4997035;28;20040;-79
2021/04/30 10:12:22;;;;;;;19.83;17.73;;;14.40;66.80;;;;;;4997624;28;20053;-78
2021/04/30 10:14:48;;;;;;;20.40;18.33;;;14.40;66.30;;;;;;5008577;28;20057;-81
2021/04/30 10:17:14;;;;;;;20.50;18.42;;;14.40;66.70;;;;;;4985202;28;20064;-81
2021/04/30 10:19:41;;;;;;;21.48;19.17;;;14.50;66.50;;;;;;5005579;28;20038;-78
2021/04/30 10:22:10;;;;;;;20.27;18.27;;;14.50;66.30;;;;;;5004450;28;20058;-79
2021/04/30 10:24:36;;;;;;;22.10;19.65;;;14.50;66.10;;;;;;4980630;28;20050;-76
2021/04/30 10:27:01;;;;;;;21.48;17.10;;;14.50;65.80;;;;;;4995358;28;20049;-78
2021/04/30 10:29:28;;;;;;;22.70;19.25;;;14.50;65.40;;;;;;5011903;28;20105;-75
2021/04/30 10:31:53;;;;;;;21.10;18.83;;;14.60;65.20;;;;;;4996523;28;20080;-77
2021/04/30 10:34:32;;;;;;;20.30;18.40;;;14.60;65.20;;;;;;5013352;28;20064;-83
2021/04/30 10:36:58;;;;;;;21.55;19.13;;;14.60;65.20;;;;;;4981450;28;20050;-78
2021/04/30 10:39:32;;;;;;;19.73;17.70;;;14.60;65.20;;;;;;4979930;28;20045;-77
2021/04/30 10:42:09;;;;;;;21.20;19.02;;;14.60;64.70;;;;;;4996923;28;20049;-77
2021/04/30 10:44:34;;;;;;;22.75;20.48;;;14.60;64.80;;;;;;4984908;28;20114;-77
2021/04/30 10:47:09;;;;;;;22.25;20.05;;;14.60;65.00;;;;;;4983995;28;20061;-78
2021/04/30 10:49:35;;;;;;;22.05;19.75;;;14.60;64.70;;;;;;5015757;28;20048;-77
2021/04/30 10:52:08;;;;;;;21.02;18.85;;;14.60;64.40;;;;;;5000522;28;20045;-78
2021/04/30 10:54:40;;;;;;;20.30;18.20;;;14.60;64.00;;;;;;5015993;28;20069;-76
2021/04/30 10:57:09;;;;;;;;;;;14.60;64.10;;;;;;5017302;28;20064;-76
2021/04/30 10:59:39;;;;;;;20.42;18.10;;;14.60;63.80;;;;;;5048891;28;20400;-77
2021/04/30 11:02:25;;;;;;;21.35;18.90;;;14.60;64.60;;;;;;5034129;28;20087;-78
2021/04/30 11:05:06;;;;;;;20.00;18.00;;;14.50;64.20;;;;;;5016697;28;20063;-76
2021/04/30 11:07:37;;;;;;;21.15;19.02;;;14.50;64.50;;;;;;5015839;28;20045;-78
2021/04/30 11:10:27;;;;;;;21.40;19.17;;;14.50;64.60;;;;;;4999513;28;20091;-78
2021/04/30 11:12:59;;;;;;;23.27;20.42;;;14.40;64.30;;;;;;5033511;28;20042;-76
2021/04/30 11:15:25;;;;;;;24.03;19.13;;;14.40;64.70;;;;;;4999071;28;20127;-81
2021/04/30 11:18:04;;;;;;;21.33;18.73;;;14.40;64.90;;;;;;4983233;28;20386;-77
2021/04/30 11:20:33;;;;;;;21.40;19.20;;;14.30;64.80;;;;;;4982746;28;20069;-77
2021/04/30 11:23:18;;;;;;;22.35;20.02;;;14.30;65.10;;;;;;4999842;28;20046;-79
2021/04/30 11:26:07;;;;;;;22.23;20.08;;;14.30;65.30;;;;;;5015367;28;20070;-77
2021/04/30 11:28:33;;;;;;;23.90;19.67;;;14.20;65.70;;;;;;5032617;28;20076;-79
2021/04/30 11:31:06;;;;;;;21.17;18.75;;;14.30;65.80;;;;;;5015397;28;20056;-77
2021/04/30 11:34:15;;;;;;;21.13;19.00;;;14.30;65.80;;;;;;5017608;28;20037;-77
2021/04/30 11:36:42;;;;;;;21.65;19.45;;;14.30;65.70;;;;;;5015987;28;20119;-77
2021/04/30 11:39:15;;;;;;;21.98;19.50;;;14.40;65.70;;;;;;4982818;28;20041;-78
2021/04/30 11:41:42;;;;;;;22.40;19.85;;;14.40;65.60;;;;;;4991018;28;20044;-77
2021/04/30 11:44:07;;;;;;;22.52;20.05;;;14.50;65.80;;;;;;5004347;28;20113;-81
2021/04/30 11:46:33;;;;;;;19.13;17.13;;;14.50;65.90;;;;;;4995495;28;20041;-80
2021/04/30 11:48:59;;;;;;;19.08;17.08;;;14.60;66.40;;;;;;5006545;28;20100;-76
2021/04/30 11:51:25;;;;;;;20.17;17.55;;;14.70;66.00;;;;;;5021337;28;20493;-78
2021/04/30 11:53:58;;;;;;;20.05;15.68;;;14.90;65.50;;;;;;4982983;28;20045;-78
2021/04/30 11:56:32;;;;;;;18.67;16.85;;;15.20;65.00;;;;;;5000887;28;20475;-78
2021/04/30 11:58:58;;;;;;;21.80;17.55;;;15.40;64.30;;;;;;5007671;28;20398;-77
2021/04/30 12:01:26;;;;;;;19.63;17.60;;;15.50;64.10;;;;;;5026499;28;20046;-78
2021/04/30 12:03:55;;;;;;;20.85;17.15;;;15.50;63.90;;;;;;4996295;28;20038;-80
2021/04/30 12:06:26;;;;;;;19.88;17.88;;;15.50;63.70;;;;;;4995708;28;20059;-78
2021/04/30 12:08:53;;;;;;;16.30;14.35;;;15.50;63.50;;;;;;5002588;28;20052;-75
2021/04/30 12:11:29;;;;;;;14.23;12.82;;;15.50;63.80;;;;;;5004767;28;20089;-75
2021/04/30 12:14:00;;;;;;;16.52;13.88;;;15.70;64.20;;;;;;4993581;28;20064;-76
2021/04/30 12:16:30;;;;;;;17.25;15.52;;;15.90;63.80;;;;;;4979172;28;20442;-78
2021/04/30 12:18:56;;;;;;;17.55;15.75;;;15.90;63.30;;;;;;5021675;28;20038;-76
2021/04/30 12:21:32;;;;;;;17.08;15.18;;;15.90;63.10;;;;;;5005229;28;20077;-74
2021/04/30 12:24:01;;;;;;;13.52;12.10;;;15.90;62.90;;;;;;5006884;28;20168;-72
2021/04/30 12:26:31;;;;;;;14.50;12.07;;;16.00;63.20;;;;;;4994422;28;20066;-78
2021/04/30 12:28:58;;;;;;;15.45;12.82;;;16.20;62.80;;;;;;4990459;28;20045;-78
2021/04/30 12:31:24;;;;;;;18.42;15.27;;;16.40;62.20;;;;;;4984648;28;20060;-78
2021/04/30 12:33:51;;;;;;;18.90;14.30;;;16.50;61.50;;;;;;5014448;28;20074;-78
2021/04/30 12:36:22;;;;;;;17.33;14.65;;;16.50;61.10;;;;;;5001038;28;20125;-76